sensor_id;sensor_type;location;lat;lon;timestamp;pressure;altitude;pressure_sealevel;temperature;humidity
22605;BME280;11469;49.024;8.246;2023-09-07T00:01:18;100623.78;;;18.01;91.28
22605;BME280;11469;49.024;8.246;2023-09-07T00:03:44;100635.16;;;17.86;91.92
22605;BME280;11469;49.024;8.246;2023-09-07T00:06:10;100631.91;;;17.74;92.46
22605;BME280;11469;49.024;8.246;2023-09-07T00:08:35;100640.00;;;17.68;93.29
22605;BME280;11469;49.024;8.246;2023-09-07T00:11:08;100637.13;;;17.57;93.58
22605;BME280;11469;49.024;8.246;2023-09-07T00:13:34;100637.53;;;17.52;93.86
22605;BME280;11469;49.024;8.246;2023-09-07T00:16:02;100639.19;;;17.85;93.25
22605;BME280;11469;49.024;8.246;2023-09-07T00:18:28;100633.53;;;17.82;92.47
22605;BME280;11469;49.024;8.246;2023-09-07T00:20:53;100630.69;;;17.71;92.76
22605;BME280;11469;49.024;8.246;2023-09-07T00:23:19;100630.66;;;17.57;93.68
22605;BME280;11469;49.024;8.246;2023-09-07T00:25:47;100627.81;;;17.50;94.40
22605;BME280;11469;49.024;8.246;2023-09-07T00:28:13;100626.63;;;17.47;94.70
22605;BME280;11469;49.024;8.246;2023-09-07T00:30:38;100626.22;;;17.45;94.95
22605;BME280;11469;49.024;8.246;2023-09-07T00:33:04;100613.63;;;17.50;94.68
22605;BME280;11469;49.024;8.246;2023-09-07T00:35:30;100617.69;;;17.49;94.22
22605;BME280;11469;49.024;8.246;2023-09-07T00:37:55;100621.75;;;17.41;94.79
22605;BME280;11469;49.024;8.246;2023-09-07T00:40:23;100618.50;;;17.35;95.15
22605;BME280;11469;49.024;8.246;2023-09-07T00:42:48;100620.53;;;17.31;95.51
22605;BME280;11469;49.024;8.246;2023-09-07T00:45:14;100614.03;;;17.27;95.61
22605;BME280;11469;49.024;8.246;2023-09-07T00:47:40;100618.88;;;17.23;95.58
22605;BME280;11469;49.024;8.246;2023-09-07T00:50:06;100620.09;;;17.18;95.55
22605;BME280;11469;49.024;8.246;2023-09-07T00:52:33;100618.06;;;17.15;95.81
22605;BME280;11469;49.024;8.246;2023-09-07T00:55:01;100609.16;;;17.10;96.04
22605;BME280;11469;49.024;8.246;2023-09-07T00:57:27;100613.25;;;17.34;96.05
22605;BME280;11469;49.024;8.246;2023-09-07T00:59:53;100605.94;;;17.22;96.07
22605;BME280;11469;49.024;8.246;2023-09-07T01:02:19;100615.59;;;17.03;96.76
22605;BME280;11469;49.024;8.246;2023-09-07T01:04:44;100613.16;;;16.95;97.99
22605;BME280;11469;49.024;8.246;2023-09-07T01:07:14;100611.13;;;16.84;98.71
22605;BME280;11469;49.024;8.246;2023-09-07T01:09:43;100605.84;;;16.83;99.29
22605;BME280;11469;49.024;8.246;2023-09-07T01:12:16;100615.56;;;16.85;98.96
22605;BME280;11469;49.024;8.246;2023-09-07T01:14:42;100611.91;;;16.85;98.65
22605;BME280;11469;49.024;8.246;2023-09-07T01:17:08;100613.53;;;16.82;98.72
22605;BME280;11469;49.024;8.246;2023-09-07T01:19:34;100615.53;;;16.78;98.64
22605;BME280;11469;49.024;8.246;2023-09-07T01:22:00;100611.88;;;16.74;98.95
22605;BME280;11469;49.024;8.246;2023-09-07T01:24:26;100605.78;;;16.69;99.24
22605;BME280;11469;49.024;8.246;2023-09-07T01:26:54;100603.78;;;16.69;99.34
22605;BME280;11469;49.024;8.246;2023-09-07T01:29:19;100610.22;;;16.66;99.54
22605;BME280;11469;49.024;8.246;2023-09-07T01:31:45;100615.50;;;16.68;99.47
22605;BME280;11469;49.024;8.246;2023-09-07T01:34:10;100604.16;;;16.64;99.53
22605;BME280;11469;49.024;8.246;2023-09-07T01:36:36;100606.53;;;16.62;99.61
22605;BME280;11469;49.024;8.246;2023-09-07T01:39:06;100614.59;;;16.53;99.97
22605;BME280;11469;49.024;8.246;2023-09-07T01:41:31;100611.78;;;16.60;100.00
22605;BME280;11469;49.024;8.246;2023-09-07T01:43:58;100609.75;;;16.53;100.00
22605;BME280;11469;49.024;8.246;2023-09-07T01:46:24;100606.91;;;16.46;100.00
22605;BME280;11469;49.024;8.246;2023-09-07T01:48:49;100612.09;;;16.37;100.00
22605;BME280;11469;49.024;8.246;2023-09-07T01:51:14;100609.25;;;16.34;100.00
22605;BME280;11469;49.024;8.246;2023-09-07T01:53:40;100612.84;;;16.27;100.00
22605;BME280;11469;49.024;8.246;2023-09-07T01:56:05;100619.78;;;16.40;100.00
22605;BME280;11469;49.024;8.246;2023-09-07T01:58:30;100610.13;;;16.48;100.00
22605;BME280;11469;49.024;8.246;2023-09-07T02:00:59;100608.03;;;16.35;100.00
22605;BME280;11469;49.024;8.246;2023-09-07T02:03:25;100605.19;;;16.31;100.00
22605;BME280;11469;49.024;8.246;2023-09-07T02:05:52;100605.47;;;16.12;100.00
22605;BME280;11469;49.024;8.246;2023-09-07T02:08:18;100607.09;;;16.06;100.00
22605;BME280;11469;49.024;8.246;2023-09-07T02:10:43;100605.53;;;16.19;100.00
22605;BME280;11469;49.024;8.246;2023-09-07T02:13:08;100603.44;;;16.05;100.00
22605;BME280;11469;49.024;8.246;2023-09-07T02:15:39;100605.38;;;15.94;100.00
22605;BME280;11469;49.024;8.246;2023-09-07T02:18:06;100608.59;;;15.92;100.00
22605;BME280;11469;49.024;8.246;2023-09-07T02:20:32;100610.59;;;15.88;100.00
22605;BME280;11469;49.024;8.246;2023-09-07T02:22:57;100606.97;;;15.91;100.00
22605;BME280;11469;49.024;8.246;2023-09-07T02:25:23;100606.63;;;15.97;100.00
22605;BME280;11469;49.024;8.246;2023-09-07T02:27:48;100601.31;;;15.88;100.00
22605;BME280;11469;49.024;8.246;2023-09-07T02:30:13;100610.16;;;15.83;100.00
22605;BME280;11469;49.024;8.246;2023-09-07T02:32:41;100607.22;;;15.72;100.00
22605;BME280;11469;49.024;8.246;2023-09-07T02:35:07;100607.25;;;15.76;100.00
22605;BME280;11469;49.024;8.246;2023-09-07T02:37:33;100611.22;;;15.68;100.00
22605;BME280;11469;49.024;8.246;2023-09-07T02:39:58;100608.75;;;15.63;100.00
22605;BME280;11469;49.024;8.246;2023-09-07T02:42:24;100605.53;;;15.60;100.00
22605;BME280;11469;49.024;8.246;2023-09-07T02:44:49;100605.94;;;15.59;100.00
22605;BME280;11469;49.024;8.246;2023-09-07T02:47:15;100601.50;;;15.62;100.00
22605;BME280;11469;49.024;8.246;2023-09-07T02:49:41;100600.69;;;15.57;100.00
22605;BME280;11469;49.024;8.246;2023-09-07T02:52:07;100603.88;;;15.56;100.00
22605;BME280;11469;49.024;8.246;2023-09-07T02:54:32;100597.41;;;15.55;100.00
22605;BME280;11469;49.024;8.246;2023-09-07T02:56:58;100596.66;;;15.58;100.00
22605;BME280;11469;49.024;8.246;2023-09-07T02:59:23;100607.06;;;15.54;100.00
22605;BME280;11469;49.024;8.246;2023-09-07T03:01:49;100600.94;;;15.45;100.00
22605;BME280;11469;49.024;8.246;2023-09-07T03:04:14;100610.63;;;15.44;100.00
22605;BME280;11469;49.024;8.246;2023-09-07T03:06:39;100606.97;;;15.44;100.00
22605;BME280;11469;49.024;8.246;2023-09-07T03:09:05;100602.53;;;15.43;100.00
22605;BME280;11469;49.024;8.246;2023-09-07T03:11:34;100597.66;;;15.40;100.00
22605;BME280;11469;49.024;8.246;2023-09-07T03:14:00;100602.50;;;15.39;100.00
22605;BME280;11469;49.024;8.246;2023-09-07T03:16:25;100610.19;;;15.42;100.00
22605;BME280;11469;49.024;8.246;2023-09-07T03:18:51;100606.56;;;15.42;100.00
22605;BME280;11469;49.024;8.246;2023-09-07T03:21:17;100608.16;;;15.39;100.00
22605;BME280;11469;49.024;8.246;2023-09-07T03:23:42;100611.50;;;15.52;100.00
22605;BME280;11469;49.024;8.246;2023-09-07T03:26:10;100606.34;;;15.57;100.00
22605;BME280;11469;49.024;8.246;2023-09-07T03:28:35;100612.31;;;15.52;100.00
22605;BME280;11469;49.024;8.246;2023-09-07T03:31:00;100610.34;;;15.56;100.00
22605;BME280;11469;49.024;8.246;2023-09-07T03:33:26;100601.56;;;15.69;100.00
22605;BME280;11469;49.024;8.246;2023-09-07T03:35:51;100615.41;;;15.84;100.00
22605;BME280;11469;49.024;8.246;2023-09-07T03:38:23;100608.16;;;15.87;100.00
22605;BME280;11469;49.024;8.246;2023-09-07T03:40:49;100607.25;;;15.76;100.00
22605;BME280;11469;49.024;8.246;2023-09-07T03:43:14;100601.97;;;15.71;100.00
22605;BME280;11469;49.024;8.246;2023-09-07T03:45:39;100603.19;;;15.70;100.00
22605;BME280;11469;49.024;8.246;2023-09-07T03:48:05;100603.19;;;15.70;100.00
22605;BME280;11469;49.024;8.246;2023-09-07T03:50:31;100596.66;;;15.62;100.00
22605;BME280;11469;49.024;8.246;2023-09-07T03:52:56;100596.59;;;15.55;100.00
22605;BME280;11469;49.024;8.246;2023-09-07T03:55:21;100594.94;;;15.50;100.00
22605;BME280;11469;49.024;8.246;2023-09-07T03:57:47;100598.75;;;15.72;100.00
22605;BME280;11469;49.024;8.246;2023-09-07T04:00:13;100599.94;;;15.68;100.00
22605;BME280;11469;49.024;8.246;2023-09-07T04:02:39;100599.06;;;15.56;100.00
22605;BME280;11469;49.024;8.246;2023-09-07T04:05:05;100602.69;;;15.60;100.00
22605;BME280;11469;49.024;8.246;2023-09-07T04:07:31;100594.44;;;15.41;100.00
22605;BME280;11469;49.024;8.246;2023-09-07T04:09:58;100606.09;;;15.36;100.00
22605;BME280;11469;49.024;8.246;2023-09-07T04:12:24;100608.97;;;15.40;100.00
22605;BME280;11469;49.024;8.246;2023-09-07T04:14:49;100607.44;;;15.49;100.00
22605;BME280;11469;49.024;8.246;2023-09-07T04:17:15;100601.78;;;15.49;100.00
22605;BME280;11469;49.024;8.246;2023-09-07T04:19:40;100601.50;;;15.58;100.00
22605;BME280;11469;49.024;8.246;2023-09-07T04:22:05;100594.50;;;15.48;100.00
22605;BME280;11469;49.024;8.246;2023-09-07T04:24:31;100596.59;;;15.55;100.00
22605;BME280;11469;49.024;8.246;2023-09-07T04:27:00;100595.34;;;15.52;100.00
22605;BME280;11469;49.024;8.246;2023-09-07T04:29:26;100593.66;;;15.44;100.00
22605;BME280;11469;49.024;8.246;2023-09-07T04:31:52;100597.13;;;15.27;100.00
22605;BME280;11469;49.024;8.246;2023-09-07T04:34:17;100595.09;;;15.24;100.00
22605;BME280;11469;49.024;8.246;2023-09-07T04:36:43;100585.03;;;15.26;100.00
22605;BME280;11469;49.024;8.246;2023-09-07T04:39:08;100587.97;;;15.37;100.00
22605;BME280;11469;49.024;8.246;2023-09-07T04:41:33;100590.88;;;15.48;100.00
22605;BME280;11469;49.024;8.246;2023-09-07T04:43:59;100602.13;;;15.44;100.00
22605;BME280;11469;49.024;8.246;2023-09-07T04:46:24;100599.81;;;15.53;100.00
22605;BME280;11469;49.024;8.246;2023-09-07T04:48:50;100603.75;;;15.45;100.00
22605;BME280;11469;49.024;8.246;2023-09-07T04:51:15;100598.19;;;15.52;100.00
22605;BME280;11469;49.024;8.246;2023-09-07T04:53:42;100604.97;;;15.44;100.00
22605;BME280;11469;49.024;8.246;2023-09-07T04:56:07;100613.81;;;15.43;100.00
22605;BME280;11469;49.024;8.246;2023-09-07T04:58:34;100600.19;;;15.52;100.00
22605;BME280;11469;49.024;8.246;2023-09-07T05:03:28;100603.50;;;15.61;100.00
22605;BME280;11469;49.024;8.246;2023-09-07T05:05:54;100609.19;;;15.65;100.00
22605;BME280;11469;49.024;8.246;2023-09-07T05:08:19;100598.75;;;15.72;100.00
22605;BME280;11469;49.024;8.246;2023-09-07T05:10:45;100599.59;;;15.76;100.00
22605;BME280;11469;49.024;8.246;2023-09-07T05:13:10;100600.38;;;15.73;100.00
22605;BME280;11469;49.024;8.246;2023-09-07T05:15:36;100606.94;;;15.84;100.00
22605;BME280;11469;49.024;8.246;2023-09-07T05:18:01;100602.50;;;15.87;100.00
22605;BME280;11469;49.024;8.246;2023-09-07T05:20:30;100610.56;;;15.85;100.00
22605;BME280;11469;49.024;8.246;2023-09-07T05:22:55;100605.69;;;15.82;100.00
22605;BME280;11469;49.024;8.246;2023-09-07T05:25:22;100606.00;;;15.70;100.00
22605;BME280;11469;49.024;8.246;2023-09-07T05:27:48;100610.06;;;15.72;100.00
22605;BME280;11469;49.024;8.246;2023-09-07T05:30:14;100616.44;;;15.62;100.00
22605;BME280;11469;49.024;8.246;2023-09-07T05:32:39;100621.25;;;15.58;100.00
22605;BME280;11469;49.024;8.246;2023-09-07T05:35:07;100623.00;;;15.77;100.00
22605;BME280;11469;49.024;8.246;2023-09-07T05:37:32;100626.03;;;16.02;100.00
22605;BME280;11469;49.024;8.246;2023-09-07T05:39:58;100622.44;;;16.05;100.00
22605;BME280;11469;49.024;8.246;2023-09-07T05:42:23;100631.31;;;16.07;100.00
22605;BME280;11469;49.024;8.246;2023-09-07T05:44:51;100625.56;;;15.92;100.00
22605;BME280;11469;49.024;8.246;2023-09-07T05:47:16;100630.09;;;16.08;100.00
22605;BME280;11469;49.024;8.246;2023-09-07T05:49:43;100640.25;;;16.16;100.00
22605;BME280;11469;49.024;8.246;2023-09-07T05:52:09;100642.66;;;16.14;100.00
22605;BME280;11469;49.024;8.246;2023-09-07T05:54:34;100647.06;;;16.08;100.00
22605;BME280;11469;49.024;8.246;2023-09-07T05:57:00;100636.97;;;16.10;100.00
22605;BME280;11469;49.024;8.246;2023-09-07T05:59:25;100635.44;;;16.23;100.00
22605;BME280;11469;49.024;8.246;2023-09-07T06:01:50;100632.31;;;16.39;100.00
22605;BME280;11469;49.024;8.246;2023-09-07T06:04:16;100642.06;;;16.49;100.00
22605;BME280;11469;49.024;8.246;2023-09-07T06:06:41;100635.63;;;16.59;100.00
22605;BME280;11469;49.024;8.246;2023-09-07T06:09:06;100638.47;;;16.59;100.00
22605;BME280;11469;49.024;8.246;2023-09-07T06:11:32;100643.94;;;17.00;100.00
22605;BME280;11469;49.024;8.246;2023-09-07T06:13:58;100636.72;;;17.34;99.22
22605;BME280;11469;49.024;8.246;2023-09-07T06:16:23;100643.66;;;17.69;96.42
22605;BME280;11469;49.024;8.246;2023-09-07T06:18:49;100643.22;;;18.06;93.88
22605;BME280;11469;49.024;8.246;2023-09-07T06:21:14;100644.81;;;18.28;91.86
22605;BME280;11469;49.024;8.246;2023-09-07T06:23:40;100642.72;;;18.46;91.03
22605;BME280;11469;49.024;8.246;2023-09-07T06:26:05;100641.06;;;18.67;90.18
22605;BME280;11469;49.024;8.246;2023-09-07T06:28:31;100643.84;;;18.88;89.29
22605;BME280;11469;49.024;8.246;2023-09-07T06:30:56;100651.00;;;19.14;86.84
22605;BME280;11469;49.024;8.246;2023-09-07T06:33:22;100648.09;;;19.21;87.02
22605;BME280;11469;49.024;8.246;2023-09-07T06:35:47;100646.34;;;19.38;85.60
22605;BME280;11469;49.024;8.246;2023-09-07T06:38:12;100652.38;;;19.54;85.26
22605;BME280;11469;49.024;8.246;2023-09-07T06:40:38;100654.72;;;19.66;84.11
22605;BME280;11469;49.024;8.246;2023-09-07T06:43:03;100651.44;;;19.71;84.12
22605;BME280;11469;49.024;8.246;2023-09-07T06:45:35;100655.53;;;19.67;83.79
22605;BME280;11469;49.024;8.246;2023-09-07T06:48:01;100653.88;;;19.73;83.89
22605;BME280;11469;49.024;8.246;2023-09-07T06:50:27;100658.75;;;19.72;83.79
22605;BME280;11469;49.024;8.246;2023-09-07T06:52:52;100660.38;;;19.70;83.97
22605;BME280;11469;49.024;8.246;2023-09-07T06:55:18;100662.41;;;19.73;83.28
22605;BME280;11469;49.024;8.246;2023-09-07T06:57:43;100666.53;;;19.65;83.31
22605;BME280;11469;49.024;8.246;2023-09-07T07:00:09;100671.81;;;19.63;83.59
22605;BME280;11469;49.024;8.246;2023-09-07T07:02:35;100666.06;;;19.70;83.57
22605;BME280;11469;49.024;8.246;2023-09-07T07:05:01;100670.56;;;19.67;83.28
22605;BME280;11469;49.024;8.246;2023-09-07T07:07:29;100669.31;;;19.72;83.70
22605;BME280;11469;49.024;8.246;2023-09-07T07:09:54;100661.97;;;19.78;82.86
22605;BME280;11469;49.024;8.246;2023-09-07T07:12:20;100669.31;;;19.72;83.45
22605;BME280;11469;49.024;8.246;2023-09-07T07:14:46;100664.88;;;19.67;83.62
22605;BME280;11469;49.024;8.246;2023-09-07T07:17:11;100662.38;;;19.76;83.46
22605;BME280;11469;49.024;8.246;2023-09-07T07:19:37;100665.50;;;19.89;83.44
22605;BME280;11469;49.024;8.246;2023-09-07T07:22:02;100673.13;;;19.99;82.05
22605;BME280;11469;49.024;8.246;2023-09-07T07:24:28;100677.94;;;20.09;81.83
22605;BME280;11469;49.024;8.246;2023-09-07T07:26:53;100675.78;;;20.20;81.61
22605;BME280;11469;49.024;8.246;2023-09-07T07:29:19;100677.03;;;20.19;81.14
22605;BME280;11469;49.024;8.246;2023-09-07T07:31:44;100692.06;;;20.20;79.41
22605;BME280;11469;49.024;8.246;2023-09-07T07:34:09;100673.34;;;20.23;79.73
22605;BME280;11469;49.024;8.246;2023-09-07T07:36:35;100669.72;;;20.18;79.79
22605;BME280;11469;49.024;8.246;2023-09-07T07:39:02;100668.53;;;20.16;80.05
22605;BME280;11469;49.024;8.246;2023-09-07T07:41:28;100678.09;;;20.33;79.07
22605;BME280;11469;49.024;8.246;2023-09-07T07:43:54;100676.41;;;20.42;79.31
22605;BME280;11469;49.024;8.246;2023-09-07T07:46:20;100680.88;;;20.43;78.34
22605;BME280;11469;49.024;8.246;2023-09-07T07:48:45;100667.28;;;20.58;78.59
22605;BME280;11469;49.024;8.246;2023-09-07T07:51:11;100670.91;;;20.62;78.60
22605;BME280;11469;49.024;8.246;2023-09-07T07:53:36;100672.75;;;20.79;78.14
22605;BME280;11469;49.024;8.246;2023-09-07T07:56:02;100672.38;;;20.77;76.89
22605;BME280;11469;49.024;8.246;2023-09-07T07:58:28;100665.31;;;20.85;77.35
22605;BME280;11469;49.024;8.246;2023-09-07T08:00:54;100665.66;;;20.91;76.22
22605;BME280;11469;49.024;8.246;2023-09-07T08:03:23;100671.75;;;20.93;76.74
22605;BME280;11469;49.024;8.246;2023-09-07T08:05:49;100673.19;;;21.08;75.62
22605;BME280;11469;49.024;8.246;2023-09-07T08:08:14;100677.97;;;21.15;74.30
22605;BME280;11469;49.024;8.246;2023-09-07T08:10:40;100667.78;;;21.17;74.26
22605;BME280;11469;49.024;8.246;2023-09-07T08:13:07;100675.22;;;21.08;74.61
22605;BME280;11469;49.024;8.246;2023-09-07T08:15:33;100669.56;;;21.35;75.08
22605;BME280;11469;49.024;8.246;2023-09-07T08:17:59;100674.06;;;21.63;74.80
22605;BME280;11469;49.024;8.246;2023-09-07T08:20:26;100667.31;;;21.76;73.67
22605;BME280;11469;49.024;8.246;2023-09-07T08:22:52;100661.97;;;21.78;73.32
22605;BME280;11469;49.024;8.246;2023-09-07T08:25:18;100663.66;;;21.99;72.09
22605;BME280;11469;49.024;8.246;2023-09-07T08:27:44;100669.88;;;21.94;70.85
22605;BME280;11469;49.024;8.246;2023-09-07T08:30:16;100672.63;;;22.01;70.60
22605;BME280;11469;49.024;8.246;2023-09-07T08:32:43;100672.47;;;22.12;71.23
22605;BME280;11469;49.024;8.246;2023-09-07T08:35:10;100669.38;;;22.23;71.26
22605;BME280;11469;49.024;8.246;2023-09-07T08:37:39;100669.06;;;22.40;69.65
22605;BME280;11469;49.024;8.246;2023-09-07T08:40:05;100670.91;;;22.50;70.08
22605;BME280;11469;49.024;8.246;2023-09-07T08:42:38;100667.19;;;22.54;70.06
22605;BME280;11469;49.024;8.246;2023-09-07T08:45:05;100674.00;;;22.60;70.17
22605;BME280;11469;49.024;8.246;2023-09-07T08:47:37;100667.88;;;22.61;69.11
22605;BME280;11469;49.024;8.246;2023-09-07T08:50:05;100677.53;;;22.67;70.63
22605;BME280;11469;49.024;8.246;2023-09-07T08:52:34;100668.25;;;22.83;69.60
22605;BME280;11469;49.024;8.246;2023-09-07T08:55:01;100660.72;;;22.93;69.42
22605;BME280;11469;49.024;8.246;2023-09-07T08:57:30;100666.41;;;23.12;68.38
22605;BME280;11469;49.024;8.246;2023-09-07T08:59:56;100661.94;;;23.11;67.97
22605;BME280;11469;49.024;8.246;2023-09-07T09:02:22;100666.09;;;23.27;67.81
22605;BME280;11469;49.024;8.246;2023-09-07T09:04:47;100670.25;;;23.42;67.71
22605;BME280;11469;49.024;8.246;2023-09-07T09:07:13;100666.03;;;23.46;66.64
22605;BME280;11469;49.024;8.246;2023-09-07T09:09:38;100672.88;;;23.69;65.70
22605;BME280;11469;49.024;8.246;2023-09-07T09:12:08;100675.50;;;23.43;65.45
22605;BME280;11469;49.024;8.246;2023-09-07T09:14:34;100670.66;;;23.60;65.31
22605;BME280;11469;49.024;8.246;2023-09-07T09:16:59;100666.56;;;23.77;64.98
22605;BME280;11469;49.024;8.246;2023-09-07T09:19:35;100667.34;;;23.78;64.21
22605;BME280;11469;49.024;8.246;2023-09-07T09:22:01;100664.41;;;23.81;64.15
22605;BME280;11469;49.024;8.246;2023-09-07T09:24:32;100661.81;;;23.71;64.02
22605;BME280;11469;49.024;8.246;2023-09-07T09:27:00;100664.22;;;23.89;64.51
22605;BME280;11469;49.024;8.246;2023-09-07T09:29:25;100656.47;;;24.05;63.18
22605;BME280;11469;49.024;8.246;2023-09-07T09:31:53;100663.78;;;24.06;63.31
22605;BME280;11469;49.024;8.246;2023-09-07T09:34:19;100655.13;;;24.10;63.58
22605;BME280;11469;49.024;8.246;2023-09-07T09:36:45;100658.34;;;23.96;63.28
22605;BME280;11469;49.024;8.246;2023-09-07T09:39:22;100651.78;;;24.28;63.41
22605;BME280;11469;49.024;8.246;2023-09-07T09:41:49;100651.84;;;24.24;62.76
22605;BME280;11469;49.024;8.246;2023-09-07T09:44:16;100650.88;;;24.14;63.85
22605;BME280;11469;49.024;8.246;2023-09-07T09:46:42;100641.28;;;24.21;63.78
22605;BME280;11469;49.024;8.246;2023-09-07T09:49:08;100644.44;;;24.43;63.93
22605;BME280;11469;49.024;8.246;2023-09-07T09:51:37;100642.38;;;24.43;63.31
22605;BME280;11469;49.024;8.246;2023-09-07T09:54:04;100641.56;;;24.43;63.14
22605;BME280;11469;49.024;8.246;2023-09-07T09:56:31;100641.84;;;24.61;63.54
22605;BME280;11469;49.024;8.246;2023-09-07T09:58:57;100645.75;;;24.55;62.60
22605;BME280;11469;49.024;8.246;2023-09-07T10:01:22;100647.81;;;24.54;62.45
22605;BME280;11469;49.024;8.246;2023-09-07T10:03:49;100642.44;;;24.69;63.06
22605;BME280;11469;49.024;8.246;2023-09-07T10:06:23;100648.03;;;24.89;63.09
22605;BME280;11469;49.024;8.246;2023-09-07T10:11:29;100631.50;;;24.80;61.93
22605;BME280;11469;49.024;8.246;2023-09-07T10:14:00;100635.97;;;24.81;62.08
22605;BME280;11469;49.024;8.246;2023-09-07T10:16:28;100642.56;;;25.07;61.15
22605;BME280;11469;49.024;8.246;2023-09-07T10:18:54;100639.94;;;25.12;60.91
22605;BME280;11469;49.024;8.246;2023-09-07T10:21:23;100645.56;;;25.03;61.72
22605;BME280;11469;49.024;8.246;2023-09-07T10:23:51;100638.00;;;25.09;60.98
22605;BME280;11469;49.024;8.246;2023-09-07T10:26:18;100638.25;;;25.28;60.96
22605;BME280;11469;49.024;8.246;2023-09-07T10:28:44;100633.53;;;25.21;60.38
22605;BME280;11469;49.024;8.246;2023-09-07T10:31:25;100632.75;;;25.33;60.41
22605;BME280;11469;49.024;8.246;2023-09-07T10:33:51;100631.03;;;25.36;60.88
22605;BME280;11469;49.024;8.246;2023-09-07T10:36:27;100621.41;;;25.42;60.70
22605;BME280;11469;49.024;8.246;2023-09-07T10:38:54;100632.41;;;25.31;60.61
22605;BME280;11469;49.024;8.246;2023-09-07T10:41:20;100631.63;;;25.43;60.21
22605;BME280;11469;49.024;8.246;2023-09-07T10:43:53;100616.69;;;25.49;59.82
22605;BME280;11469;49.024;8.246;2023-09-07T10:46:21;100612.44;;;25.66;60.19
22605;BME280;11469;49.024;8.246;2023-09-07T10:48:52;100610.38;;;25.79;60.35
22605;BME280;11469;49.024;8.246;2023-09-07T10:51:19;100618.50;;;25.93;59.80
22605;BME280;11469;49.024;8.246;2023-09-07T10:53:44;100612.84;;;26.02;59.16
22605;BME280;11469;49.024;8.246;2023-09-07T10:56:10;100603.75;;;26.04;58.94
22605;BME280;11469;49.024;8.246;2023-09-07T10:58:37;100603.25;;;25.84;59.50
22605;BME280;11469;49.024;8.246;2023-09-07T11:01:08;100599.50;;;26.08;59.62
22605;BME280;11469;49.024;8.246;2023-09-07T11:03:34;100602.78;;;26.32;58.67
22605;BME280;11469;49.024;8.246;2023-09-07T11:06:10;100593.72;;;26.34;58.04
22605;BME280;11469;49.024;8.246;2023-09-07T11:08:37;100599.00;;;26.57;57.52
22605;BME280;11469;49.024;8.246;2023-09-07T11:11:03;100595.78;;;26.55;57.84
22605;BME280;11469;49.024;8.246;2023-09-07T11:13:28;100596.25;;;26.54;57.91
22605;BME280;11469;49.024;8.246;2023-09-07T11:15:55;100588.63;;;26.60;57.64
22605;BME280;11469;49.024;8.246;2023-09-07T11:18:21;100593.19;;;26.70;57.49
22605;BME280;11469;49.024;8.246;2023-09-07T11:20:48;100592.22;;;26.51;57.59
22605;BME280;11469;49.024;8.246;2023-09-07T11:23:14;100590.97;;;26.52;57.16
22605;BME280;11469;49.024;8.246;2023-09-07T11:25:39;100582.41;;;26.61;57.29
22605;BME280;11469;49.024;8.246;2023-09-07T11:28:05;100576.19;;;26.63;57.76
22605;BME280;11469;49.024;8.246;2023-09-07T11:30:32;100579.69;;;26.80;57.51
22605;BME280;11469;49.024;8.246;2023-09-07T11:35:27;100577.19;;;26.91;57.72
22605;BME280;11469;49.024;8.246;2023-09-07T11:37:53;100570.56;;;27.03;57.32
22605;BME280;11469;49.024;8.246;2023-09-07T11:40:19;100566.75;;;27.06;56.23
22605;BME280;11469;49.024;8.246;2023-09-07T11:42:44;100574.00;;;27.20;57.12
22605;BME280;11469;49.024;8.246;2023-09-07T11:45:10;100565.38;;;27.20;56.05
22605;BME280;11469;49.024;8.246;2023-09-07T11:47:35;100569.41;;;27.31;56.95
22605;BME280;11469;49.024;8.246;2023-09-07T11:50:01;100575.47;;;27.24;55.71
22605;BME280;11469;49.024;8.246;2023-09-07T11:52:27;100570.22;;;27.32;55.89
22605;BME280;11469;49.024;8.246;2023-09-07T11:54:52;100572.00;;;27.38;55.28
22605;BME280;11469;49.024;8.246;2023-09-07T11:57:18;100573.00;;;27.14;55.84
22605;BME280;11469;49.024;8.246;2023-09-07T11:59:43;100564.97;;;27.39;56.09
22605;BME280;11469;49.024;8.246;2023-09-07T12:02:09;100562.41;;;27.32;55.47
22605;BME280;11469;49.024;8.246;2023-09-07T12:04:37;100562.09;;;27.39;55.72
22605;BME280;11469;49.024;8.246;2023-09-07T12:07:04;100563.09;;;27.55;55.41
22605;BME280;11469;49.024;8.246;2023-09-07T12:09:29;100562.53;;;27.69;54.89
22605;BME280;11469;49.024;8.246;2023-09-07T12:11:55;100559.34;;;27.76;54.64
22605;BME280;11469;49.024;8.246;2023-09-07T12:14:20;100556.94;;;27.74;54.10
22605;BME280;11469;49.024;8.246;2023-09-07T12:16:45;100554.53;;;27.73;54.42
22605;BME280;11469;49.024;8.246;2023-09-07T12:19:11;100548.94;;;27.69;54.42
22605;BME280;11469;49.024;8.246;2023-09-07T12:21:36;100557.91;;;27.81;54.22
22605;BME280;11469;49.024;8.246;2023-09-07T12:24:02;100552.00;;;28.02;54.06
22605;BME280;11469;49.024;8.246;2023-09-07T12:26:27;100556.00;;;28.05;53.57
22605;BME280;11469;49.024;8.246;2023-09-07T12:28:52;100548.00;;;27.82;54.12
22605;BME280;11469;49.024;8.246;2023-09-07T12:31:18;100536.00;;;27.92;53.30
22605;BME280;11469;49.024;8.246;2023-09-07T12:33:44;100536.63;;;27.96;52.77
22605;BME280;11469;49.024;8.246;2023-09-07T12:36:09;100533.13;;;28.20;53.33
22605;BME280;11469;49.024;8.246;2023-09-07T12:38:36;100538.13;;;28.28;52.60
22605;BME280;11469;49.024;8.246;2023-09-07T12:41:01;100539.09;;;28.25;51.90
22605;BME280;11469;49.024;8.246;2023-09-07T12:43:26;100531.19;;;27.98;52.26
22605;BME280;11469;49.024;8.246;2023-09-07T12:45:52;100527.84;;;28.09;52.09
22605;BME280;11469;49.024;8.246;2023-09-07T12:48:19;100528.00;;;28.42;51.46